Time;durP1;ratioP1;P1;durP2;ratioP2;P2;SDS_P1;SDS_P2;PMS_P1;PMS_P2;Temp;Humidity;BMP_temperature;BMP_pressure;BME280_temperature;BME280_humidity;BME280_pressure;Samples;Min_cycle;Max_cycle;Signal;HPM_P1;HPM_P2
2023/06/06 00:00:43;;;;;;;8.98;7.10;;;17.40;99.90;;;;;;2097248;28;20368;-71
2023/06/06 00:01:45;;;;;;;9.00;7.22;;;17.50;99.90;;;;;;2098395;28;20193;-71
2023/06/06 00:02:46;;;;;;;8.18;7.15;;;17.40;99.90;;;;;;2098633;28;20164;-72
2023/06/06 00:03:48;;;;;;;8.50;7.60;;;17.40;99.90;;;;;;2098335;28;20407;-71
2023/06/06 00:04:49;;;;;;;9.25;7.43;;;17.40;99.90;;;;;;2098391;28;20654;-70
2023/06/06 00:05:50;;;;;;;10.38;7.00;;;17.40;99.90;;;;;;2101807;28;20024;-72
2023/06/06 00:06:52;;;;;;;9.65;7.40;;;17.40;99.90;;;;;;2101275;28;20033;-71
2023/06/06 00:07:53;;;;;;;9.00;7.47;;;17.40;99.90;;;;;;2096354;28;20042;-70
2023/06/06 00:08:54;;;;;;;8.57;7.28;;;17.30;99.90;;;;;;2091239;28;20028;-70
2023/06/06 00:09:55;;;;;;;9.20;7.57;;;17.30;99.90;;;;;;2102086;28;20114;-71
2023/06/06 00:10:55;;;;;;;9.02;7.78;;;17.30;99.90;;;;;;2094383;28;20101;-70
2023/06/06 00:11:56;;;;;;;9.18;7.72;;;17.30;99.90;;;;;;2095363;28;20106;-71
2023/06/06 00:12:57;;;;;;;8.82;7.30;;;17.20;99.90;;;;;;2098390;28;20370;-70
2023/06/06 00:13:58;;;;;;;9.55;7.90;;;17.20;99.90;;;;;;2101440;28;20406;-71
2023/06/06 00:14:59;;;;;;;8.95;7.57;;;17.20;99.90;;;;;;2101253;28;20107;-70
2023/06/06 00:16:00;;;;;;;11.77;7.50;;;17.20;99.90;;;;;;2100577;28;20023;-71
2023/06/06 00:17:01;;;;;;;9.05;7.53;;;17.20;99.90;;;;;;2099563;28;20011;-71
2023/06/06 00:18:02;;;;;;;8.77;7.40;;;17.20;99.90;;;;;;2095952;28;20487;-71
2023/06/06 00:19:03;;;;;;;9.27;7.28;;;17.10;99.90;;;;;;2097972;28;20032;-71
2023/06/06 00:20:06;;;;;;;9.48;7.68;;;17.10;99.90;;;;;;2102796;28;20024;-71
2023/06/06 00:21:08;;;;;;;9.52;7.85;;;17.10;99.90;;;;;;2097937;28;20563;-72
2023/06/06 00:22:09;;;;;;;8.48;7.38;;;17.10;99.90;;;;;;2098690;28;20049;-71
2023/06/06 00:23:10;;;;;;;8.38;7.20;;;17.10;99.90;;;;;;2100803;28;20067;-70
2023/06/06 00:24:11;;;;;;;9.52;7.30;;;17.10;99.90;;;;;;2102296;28;20558;-71
2023/06/06 00:25:11;;;;;;;9.70;7.85;;;17.10;99.90;;;;;;2092126;28;20033;-71
2023/06/06 00:26:12;;;;;;;11.90;8.13;;;17.10;99.90;;;;;;2097701;28;20112;-71
2023/06/06 00:27:15;;;;;;;10.35;8.40;;;17.10;99.90;;;;;;2099395;28;20490;-70
2023/06/06 00:28:16;;;;;;;11.90;8.35;;;17.10;99.90;;;;;;2088588;28;20259;-71
2023/06/06 00:29:17;;;;;;;10.23;8.15;;;17.00;99.90;;;;;;2087688;28;20419;-71
2023/06/06 00:30:17;;;;;;;9.55;7.70;;;17.00;99.90;;;;;;2094424;28;20032;-71
2023/06/06 00:31:20;;;;;;;11.73;8.18;;;17.00;99.90;;;;;;2094811;28;20032;-71
2023/06/06 00:32:20;;;;;;;10.77;7.95;;;17.00;99.90;;;;;;2096192;28;20527;-71
2023/06/06 00:33:21;;;;;;;8.52;7.63;;;17.00;99.90;;;;;;2100677;28;20028;-71
2023/06/06 00:34:21;;;;;;;9.18;8.27;;;17.00;99.90;;;;;;2093780;28;20032;-71
2023/06/06 00:35:24;;;;;;;8.43;7.40;;;17.00;99.90;;;;;;2089816;28;20098;-72
2023/06/06 00:36:24;;;;;;;9.68;8.18;;;17.00;99.90;;;;;;2097147;28;20024;-71
2023/06/06 00:37:25;;;;;;;9.77;7.45;;;17.00;99.90;;;;;;2091278;28;20044;-71
2023/06/06 00:38:25;;;;;;;8.95;8.00;;;17.00;99.90;;;;;;2092574;28;20036;-71
2023/06/06 00:39:26;;;;;;;10.70;8.35;;;17.00;99.90;;;;;;2095010;28;20040;-71
2023/06/06 00:40:27;;;;;;;12.88;8.55;;;17.00;99.90;;;;;;2101848;28;20059;-71
2023/06/06 00:41:27;;;;;;;10.25;8.02;;;17.00;99.90;;;;;;2094088;28;20033;-71
2023/06/06 00:42:28;;;;;;;11.23;7.97;;;16.90;99.90;;;;;;2091167;28;20028;-71
2023/06/06 00:43:29;;;;;;;9.57;7.60;;;16.90;99.90;;;;;;2092502;28;20472;-71
2023/06/06 00:44:29;;;;;;;8.80;7.68;;;16.90;99.90;;;;;;2099530;28;20031;-71
2023/06/06 00:45:30;;;;;;;9.60;7.93;;;16.90;99.90;;;;;;2099586;28;20036;-72
2023/06/06 00:46:31;;;;;;;9.43;7.60;;;16.90;99.90;;;;;;2095308;28;20075;-71
2023/06/06 00:47:32;;;;;;;10.77;7.97;;;16.90;99.90;;;;;;2088977;28;20055;-72
2023/06/06 00:48:32;;;;;;;10.73;8.20;;;16.90;99.90;;;;;;2095762;28;20020;-71
2023/06/06 00:49:35;;;;;;;11.13;8.02;;;16.90;99.90;;;;;;2090415;28;20025;-71
2023/06/06 00:50:36;;;;;;;10.85;8.27;;;16.90;99.90;;;;;;2094386;28;20289;-71
2023/06/06 00:51:38;;;;;;;9.05;8.05;;;16.80;99.90;;;;;;2094471;28;20270;-70
2023/06/06 00:52:45;;;;;;;9.77;7.78;;;16.80;99.90;;;;;;2096899;28;20419;-70
2023/06/06 00:53:46;;;;;;;11.85;8.00;;;16.90;99.90;;;;;;2093740;28;20376;-71
2023/06/06 00:54:48;;;;;;;10.90;8.30;;;16.80;99.90;;;;;;2092631;28;20032;-70
2023/06/06 00:55:48;;;;;;;10.82;8.20;;;16.80;99.90;;;;;;2099799;28;20030;-71
2023/06/06 00:56:51;;;;;;;10.93;8.13;;;16.90;99.90;;;;;;2100747;28;20421;-71
2023/06/06 00:57:52;;;;;;;9.05;7.57;;;16.90;99.90;;;;;;2093694;28;20027;-72
2023/06/06 00:58:53;;;;;;;10.45;8.20;;;16.90;99.90;;;;;;2095243;28;20090;-71
2023/06/06 00:59:54;;;;;;;9.43;7.93;;;16.80;99.90;;;;;;2094691;28;20483;-71
2023/06/06 01:00:56;;;;;;;9.02;7.78;;;16.80;99.90;;;;;;2096249;28;20550;-71
2023/06/06 01:01:58;;;;;;;8.60;7.65;;;16.80;99.90;;;;;;2087224;28;20024;-71
2023/06/06 01:03:03;;;;;;;9.05;8.05;;;16.80;99.90;;;;;;2091885;28;20507;-70
2023/06/06 01:04:07;;;;;;;10.63;8.40;;;16.80;99.90;;;;;;2095454;28;20028;-70
2023/06/06 01:05:08;;;;;;;11.27;8.40;;;16.80;99.90;;;;;;2102881;28;20410;-72
2023/06/06 01:06:09;;;;;;;10.82;8.75;;;16.80;99.90;;;;;;2100816;28;20028;-70
2023/06/06 01:07:17;;;;;;;9.73;8.70;;;16.70;99.90;;;;;;2093737;28;20039;-71
2023/06/06 01:08:20;;;;;;;11.77;8.65;;;16.70;99.90;;;;;;2092756;28;20425;-71
2023/06/06 01:09:21;;;;;;;10.15;8.20;;;16.70;99.90;;;;;;2089055;28;20032;-71
2023/06/06 01:10:23;;;;;;;9.68;8.65;;;16.70;99.90;;;;;;2094979;28;20426;-72
2023/06/06 01:11:34;;;;;;;10.80;8.23;;;16.70;99.90;;;;;;2093702;28;20044;-71
2023/06/06 01:12:39;;;;;;;10.13;8.48;;;16.70;99.90;;;;;;2093767;28;20044;-71
2023/06/06 01:13:56;;;;;;;13.27;8.52;;;16.70;99.90;;;;;;2100115;28;20035;-71
2023/06/06 01:15:10;;;;;;;10.90;8.80;;;16.70;99.90;;;;;;2096734;28;20111;-72
2023/06/06 01:16:18;;;;;;;10.52;8.73;;;16.60;99.90;;;;;;2097507;28;20028;-71
2023/06/06 01:17:25;;;;;;;10.25;8.57;;;16.70;99.90;;;;;;2098086;28;20301;-70
2023/06/06 01:18:26;;;;;;;10.02;8.88;;;16.70;99.90;;;;;;2092697;28;20024;-70
2023/06/06 01:19:29;;;;;;;10.55;9.23;;;16.70;99.90;;;;;;2089208;28;20704;-71
2023/06/06 01:20:31;;;;;;;10.68;8.48;;;16.70;99.90;;;;;;2097231;28;20033;-70
2023/06/06 01:21:44;;;;;;;9.18;8.23;;;16.70;99.90;;;;;;2100969;28;20108;-71
2023/06/06 01:22:46;;;;;;;10.93;8.43;;;16.70;99.90;;;;;;2094641;28;20025;-71
2023/06/06 01:23:47;;;;;;;12.90;9.25;;;16.60;99.90;;;;;;2104141;28;20028;-71
2023/06/06 01:24:55;;;;;;;10.75;8.57;;;16.60;99.90;;;;;;2101189;28;20376;-71
2023/06/06 01:25:56;;;;;;;9.70;8.43;;;16.60;99.90;;;;;;2099408;28;20047;-70
2023/06/06 01:26:56;;;;;;;10.55;8.63;;;16.60;99.90;;;;;;2099909;28;20031;-71
2023/06/06 01:27:58;;;;;;;9.88;8.88;;;16.60;99.90;;;;;;2100179;28;20107;-71
2023/06/06 01:28:59;;;;;;;10.88;9.35;;;16.60;99.90;;;;;;2088500;28;20027;-71
2023/06/06 01:30:01;;;;;;;11.73;9.13;;;16.60;99.90;;;;;;2093309;28;20110;-71
2023/06/06 01:31:03;;;;;;;11.70;9.10;;;16.50;99.90;;;;;;2094868;28;20029;-71
2023/06/06 01:32:12;;;;;;;11.15;8.85;;;16.60;99.90;;;;;;2099675;28;20116;-71
2023/06/06 01:33:37;;;;;;;11.75;9.05;;;16.60;99.90;;;;;;2096507;28;20052;-70
2023/06/06 01:35:06;;;;;;;10.45;9.15;;;16.60;99.90;;;;;;2098593;28;20032;-72
2023/06/06 01:36:31;;;;;;;10.63;9.13;;;16.50;99.90;;;;;;2090379;28;20391;-71
2023/06/06 01:37:50;;;;;;;11.07;9.10;;;16.50;99.90;;;;;;2099182;28;20139;-72
2023/06/06 01:38:59;;;;;;;10.65;9.07;;;16.50;99.90;;;;;;2100295;28;20019;-72
2023/06/06 01:40:05;;;;;;;9.93;8.90;;;16.50;99.90;;;;;;2099647;28;20020;-72
2023/06/06 01:41:08;;;;;;;10.95;9.23;;;16.50;99.90;;;;;;2100568;28;20019;-70
2023/06/06 01:42:10;;;;;;;10.07;8.48;;;16.50;99.90;;;;;;2095434;28;20537;-71
2023/06/06 01:43:12;;;;;;;10.05;9.00;;;16.50;99.90;;;;;;2085116;28;20344;-71
2023/06/06 01:44:15;;;;;;;11.07;9.15;;;16.50;99.90;;;;;;2100350;28;20032;-71
2023/06/06 01:45:20;;;;;;;10.38;8.73;;;16.40;99.90;;;;;;2093141;28;20111;-71
2023/06/06 01:46:22;;;;;;;11.30;9.20;;;16.40;99.90;;;;;;2085759;28;20071;-71
2023/06/06 01:47:23;;;;;;;10.15;8.95;;;16.40;99.90;;;;;;2087562;28;20411;-71
2023/06/06 01:48:25;;;;;;;10.52;8.70;;;16.40;99.90;;;;;;2090475;28;20049;-71
2023/06/06 01:49:27;;;;;;;11.07;8.82;;;16.40;99.90;;;;;;2093251;28;20419;-71
2023/06/06 01:50:27;;;;;;;10.90;9.32;;;16.40;99.90;;;;;;2099530;28;20027;-71
2023/06/06 01:51:28;;;;;;;11.77;8.98;;;16.40;99.90;;;;;;2093194;28;20020;-71
2023/06/06 01:52:29;;;;;;;10.65;9.05;;;16.40;99.90;;;;;;2086549;28;20033;-71
2023/06/06 01:53:29;;;;;;;10.57;9.20;;;16.40;99.90;;;;;;2092052;28;20032;-71
2023/06/06 01:54:34;;;;;;;11.55;9.93;;;16.40;99.90;;;;;;2096619;28;20023;-71
2023/06/06 01:55:36;;;;;;;14.38;9.23;;;16.40;99.90;;;;;;2097572;28;20024;-71
2023/06/06 01:56:37;;;;;;;10.38;9.27;;;16.40;99.90;;;;;;2097423;28;20398;-71
2023/06/06 01:57:38;;;;;;;11.63;9.05;;;16.40;99.90;;;;;;2095036;28;20055;-71
2023/06/06 01:58:41;;;;;;;12.88;9.40;;;16.30;99.90;;;;;;2093149;28;20028;-71
2023/06/06 01:59:41;;;;;;;10.93;8.90;;;16.40;99.90;;;;;;2096190;28;20086;-71
2023/06/06 02:00:42;;;;;;;11.32;9.40;;;16.30;99.90;;;;;;2095270;28;20483;-71
2023/06/06 02:01:43;;;;;;;10.25;9.18;;;16.30;99.90;;;;;;2092300;28;20070;-71
2023/06/06 02:02:43;;;;;;;10.75;8.75;;;16.30;99.90;;;;;;2100414;28;20320;-72
2023/06/06 02:03:44;;;;;;;11.00;9.20;;;16.30;99.90;;;;;;2096525;28;20035;-72
2023/06/06 02:04:47;;;;;;;11.70;9.30;;;16.30;99.90;;;;;;2094287;28;20046;-72
2023/06/06 02:05:48;;;;;;;10.65;9.50;;;16.30;99.90;;;;;;2093345;28;20407;-72
2023/06/06 02:06:49;;;;;;;11.70;9.45;;;16.30;99.90;;;;;;2090213;28;20032;-71
2023/06/06 02:07:51;;;;;;;11.40;9.45;;;16.30;99.90;;;;;;2095846;28;20034;-71
2023/06/06 02:08:52;;;;;;;12.75;9.95;;;16.20;99.90;;;;;;2090027;28;20457;-71
2023/06/06 02:09:53;;;;;;;11.90;9.50;;;16.20;99.90;;;;;;2086630;28;20020;-71
2023/06/06 02:10:55;;;;;;;12.27;9.50;;;16.30;99.90;;;;;;2099163;28;20123;-73
2023/06/06 02:11:55;;;;;;;9.88;8.88;;;16.20;99.90;;;;;;2093285;28;20585;-72
2023/06/06 02:12:56;;;;;;;11.00;9.38;;;16.30;99.90;;;;;;2098503;28;20031;-72
2023/06/06 02:13:59;;;;;;;11.25;9.63;;;16.30;99.90;;;;;;2086127;28;20024;-71
2023/06/06 02:15:05;;;;;;;12.02;9.90;;;16.30;99.90;;;;;;2088604;28;20036;-72
2023/06/06 02:16:06;;;;;;;12.98;10.00;;;16.30;99.90;;;;;;2096407;28;20031;-71
2023/06/06 02:17:06;;;;;;;11.00;9.43;;;16.20;99.90;;;;;;2098436;28;20142;-71
2023/06/06 02:18:07;;;;;;;13.82;10.00;;;16.20;99.90;;;;;;2083361;28;20032;-70
2023/06/06 02:19:07;;;;;;;13.15;10.20;;;16.20;99.90;;;;;;2086432;28;20484;-71
2023/06/06 02:20:09;;;;;;;10.73;9.48;;;16.10;99.90;;;;;;2099665;28;20056;-71
2023/06/06 02:21:12;;;;;;;11.25;9.73;;;16.20;99.90;;;;;;2080455;28;20556;-71
2023/06/06 02:22:13;;;;;;;13.25;9.73;;;16.20;99.90;;;;;;2083238;28;20064;-71
2023/06/06 02:23:18;;;;;;;11.55;9.90;;;16.20;99.90;;;;;;2099433;28;20143;-71
2023/06/06 02:24:20;;;;;;;11.10;9.77;;;16.20;99.90;;;;;;2099051;28;20054;-71
2023/06/06 02:25:23;;;;;;;10.10;9.05;;;16.20;99.90;;;;;;2099749;28;20110;-73
2023/06/06 02:26:23;;;;;;;9.82;8.82;;;16.20;99.90;;;;;;2100523;28;20619;-71
2023/06/06 02:27:24;;;;;;;12.50;9.57;;;16.20;99.90;;;;;;2096496;28;20042;-71
2023/06/06 02:28:24;;;;;;;11.43;9.50;;;16.20;99.90;;;;;;2086555;28;20044;-71
2023/06/06 02:29:25;;;;;;;10.73;9.63;;;16.20;99.90;;;;;;2085153;28;20060;-71
2023/06/06 02:30:26;;;;;;;11.68;9.68;;;16.20;99.90;;;;;;2091845;28;20130;-71
2023/06/06 02:31:27;;;;;;;11.18;9.63;;;16.20;99.90;;;;;;2081886;28;20037;-71
2023/06/06 02:32:29;;;;;;;10.82;9.73;;;16.20;99.90;;;;;;2092421;28;20033;-71
2023/06/06 02:33:30;;;;;;;11.95;9.80;;;16.20;99.90;;;;;;2097309;28;20398;-71
2023/06/06 02:34:30;;;;;;;11.15;9.20;;;16.10;99.90;;;;;;2100549;28;20234;-71
2023/06/06 02:35:31;;;;;;;11.23;9.00;;;16.10;99.90;;;;;;2097159;28;20368;-71
2023/06/06 02:36:32;;;;;;;11.40;10.07;;;16.10;99.90;;;;;;2097430;28;20028;-71
2023/06/06 02:37:32;;;;;;;10.93;9.63;;;16.10;99.90;;;;;;2102442;28;20058;-71
2023/06/06 02:38:33;;;;;;;11.73;9.90;;;16.10;99.90;;;;;;2099940;28;20025;-71
2023/06/06 02:39:35;;;;;;;10.55;9.43;;;16.10;99.90;;;;;;2094829;28;20036;-71
2023/06/06 02:40:35;;;;;;;11.48;9.75;;;16.10;99.90;;;;;;2094937;28;20550;-72
2023/06/06 02:41:36;;;;;;;10.57;9.30;;;16.10;99.90;;;;;;2099542;28;20031;-72
2023/06/06 02:42:38;;;;;;;10.85;9.30;;;16.10;99.90;;;;;;2094724;28;20475;-72
2023/06/06 02:43:42;;;;;;;10.85;8.82;;;16.10;99.90;;;;;;2090907;28;20024;-73
2023/06/06 02:44:43;;;;;;;9.90;8.90;;;16.10;99.90;;;;;;2087281;28;20030;-72
2023/06/06 02:45:43;;;;;;;10.50;9.18;;;16.10;99.90;;;;;;2094718;28;20526;-72
2023/06/06 02:46:44;;;;;;;9.98;8.90;;;16.10;99.90;;;;;;2098933;28;20494;-72
2023/06/06 02:47:46;;;;;;;10.07;9.07;;;16.10;99.90;;;;;;2102898;28;20490;-72
2023/06/06 02:48:48;;;;;;;10.85;9.65;;;16.10;99.90;;;;;;2091565;28;20025;-70
2023/06/06 02:49:49;;;;;;;10.90;8.88;;;16.10;99.90;;;;;;2093276;28;20021;-72
2023/06/06 02:50:50;;;;;;;11.50;9.32;;;16.10;99.90;;;;;;2092662;28;20019;-72
2023/06/06 02:51:50;;;;;;;11.85;9.77;;;16.10;99.90;;;;;;2094075;28;20119;-70
2023/06/06 02:52:52;;;;;;;10.50;9.40;;;16.10;99.90;;;;;;2098224;28;20079;-71
2023/06/06 02:53:52;;;;;;;10.50;9.38;;;16.00;99.90;;;;;;2098355;28;20317;-70
2023/06/06 02:54:53;;;;;;;10.75;9.65;;;16.00;99.90;;;;;;2098593;28;20097;-70
2023/06/06 02:55:54;;;;;;;11.25;9.77;;;16.00;99.90;;;;;;2095276;28;20511;-70
2023/06/06 02:56:55;;;;;;;11.75;10.02;;;16.10;99.90;;;;;;2092652;28;20048;-71
2023/06/06 02:57:56;;;;;;;11.07;9.82;;;16.00;99.90;;;;;;2097954;28;20043;-71
2023/06/06 02:58:56;;;;;;;11.23;9.85;;;16.00;99.90;;;;;;2100052;28;20311;-71
2023/06/06 02:59:58;;;;;;;12.38;10.63;;;16.00;99.90;;;;;;2100560;28;20490;-72
2023/06/06 03:01:03;;;;;;;11.07;9.95;;;16.00;99.90;;;;;;2096810;28;20449;-71
2023/06/06 03:02:04;;;;;;;14.02;10.60;;;15.90;99.90;;;;;;2087931;28;20044;-72
2023/06/06 03:03:05;;;;;;;11.30;9.93;;;15.90;99.90;;;;;;2084316;28;20037;-71
2023/06/06 03:04:05;;;;;;;13.10;10.77;;;15.80;99.90;;;;;;2093638;28;20048;-71
2023/06/06 03:05:06;;;;;;;13.73;11.00;;;15.80;99.90;;;;;;2098003;28;20031;-71
2023/06/06 03:06:07;;;;;;;11.70;10.32;;;15.80;99.90;;;;;;2098333;28;20032;-71
2023/06/06 03:07:10;;;;;;;11.80;10.35;;;15.80;99.90;;;;;;2094831;28;20537;-70
2023/06/06 03:08:14;;;;;;;12.30;10.88;;;15.80;99.90;;;;;;2101006;28;20051;-72
2023/06/06 03:09:14;;;;;;;11.85;10.60;;;15.80;99.90;;;;;;2091215;28;20043;-72
2023/06/06 03:10:16;;;;;;;12.30;10.60;;;15.70;99.90;;;;;;2099876;28;20111;-72
2023/06/06 03:11:21;;;;;;;14.45;11.18;;;15.70;99.90;;;;;;2096671;28;20826;-72
2023/06/06 03:12:22;;;;;;;12.30;11.00;;;15.70;99.90;;;;;;2090919;28;20062;-72
2023/06/06 03:13:23;;;;;;;12.27;10.98;;;15.70;99.90;;;;;;2095022;28;20028;-71
2023/06/06 03:14:24;;;;;;;11.85;10.65;;;15.70;99.90;;;;;;2101000;28;20618;-72
2023/06/06 03:15:25;;;;;;;12.27;10.65;;;15.70;99.90;;;;;;2095932;28;20027;-72
2023/06/06 03:16:26;;;;;;;13.65;11.55;;;15.70;99.90;;;;;;2089613;28;20541;-72
2023/06/06 03:17:27;;;;;;;13.20;10.98;;;15.70;99.90;;;;;;2089911;28;20037;-72
2023/06/06 03:18:28;;;;;;;13.05;11.00;;;15.70;99.90;;;;;;2090534;28;20581;-73
2023/06/06 03:19:35;;;;;;;14.20;12.05;;;15.70;99.90;;;;;;2095576;28;20108;-72
2023/06/06 03:20:38;;;;;;;12.20;10.90;;;15.60;99.90;;;;;;2093276;28;20518;-73
2023/06/06 03:21:44;;;;;;;14.98;11.88;;;15.60;99.90;;;;;;2084926;28;20401;-72
2023/06/06 03:22:45;;;;;;;13.63;11.63;;;15.60;99.90;;;;;;2091624;28;20056;-72
2023/06/06 03:23:47;;;;;;;13.57;11.20;;;15.60;99.90;;;;;;2109673;27;20391;-73
2023/06/06 03:24:49;;;;;;;14.10;11.93;;;15.60;99.90;;;;;;2109418;27;20031;-72
2023/06/06 03:25:51;;;;;;;13.32;11.52;;;15.60;99.90;;;;;;2099726;28;20032;-72
2023/06/06 03:26:53;;;;;;;15.73;12.23;;;15.60;99.90;;;;;;2096858;28;20028;-73
2023/06/06 03:27:54;;;;;;;13.85;11.48;;;15.60;99.90;;;;;;2085684;28;20905;-73
2023/06/06 03:28:59;;;;;;;13.00;11.70;;;15.60;99.90;;;;;;2086379;28;20029;-73
2023/06/06 03:30:06;;;;;;;13.18;11.77;;;15.50;99.90;;;;;;2092217;28;20527;-73
2023/06/06 03:31:07;;;;;;;13.43;11.93;;;15.50;99.90;;;;;;2090278;28;20314;-72
2023/06/06 03:32:17;;;;;;;13.13;11.57;;;15.50;99.90;;;;;;2087426;28;20036;-72
2023/06/06 03:33:20;;;;;;;13.32;11.93;;;15.50;99.90;;;;;;2086338;28;20488;-72
2023/06/06 03:34:25;;;;;;;13.60;11.38;;;15.50;99.90;;;;;;2095272;28;20020;-71
2023/06/06 03:35:28;;;;;;;12.20;10.90;;;15.50;99.90;;;;;;2096446;28;20055;-72
2023/06/06 03:36:35;;;;;;;12.68;11.38;;;15.50;99.90;;;;;;2092668;28;20032;-71
2023/06/06 03:37:37;;;;;;;12.30;11.00;;;15.50;99.90;;;;;;2090160;28;20124;-73
2023/06/06 03:38:38;;;;;;;14.65;11.32;;;15.50;99.90;;;;;;2091226;28;20021;-71
2023/06/06 03:39:40;;;;;;;14.75;11.73;;;15.50;99.90;;;;;;2101305;28;20024;-72
2023/06/06 03:40:43;;;;;;;12.73;11.00;;;15.40;99.90;;;;;;2083136;28;20171;-72
2023/06/06 03:41:44;;;;;;;13.80;11.77;;;15.40;99.90;;;;;;2083298;28;20466;-72
2023/06/06 03:42:44;;;;;;;14.23;11.43;;;15.50;99.90;;;;;;2094606;28;20174;-72
2023/06/06 03:43:45;;;;;;;12.65;11.32;;;15.50;99.90;;;;;;2089945;28;20523;-72
2023/06/06 03:44:47;;;;;;;13.93;11.55;;;15.40;99.90;;;;;;2088781;28;20563;-72
2023/06/06 03:45:48;;;;;;;12.32;11.02;;;15.40;99.90;;;;;;2091896;28;20024;-72
2023/06/06 03:46:49;;;;;;;14.40;11.98;;;15.40;99.90;;;;;;2094449;28;20055;-74
2023/06/06 03:47:50;;;;;;;12.95;11.40;;;15.40;99.90;;;;;;2089233;28;20032;-72
2023/06/06 03:48:52;;;;;;;12.40;11.05;;;15.40;99.90;;;;;;2101310;28;20066;-72
2023/06/06 03:49:52;;;;;;;13.07;11.55;;;15.40;99.90;;;;;;2083958;28;20695;-72
2023/06/06 03:50:53;;;;;;;12.35;11.07;;;15.40;99.90;;;;;;2082628;28;20377;-72
2023/06/06 03:51:54;;;;;;;15.23;11.38;;;15.40;99.90;;;;;;2092930;28;20035;-72
2023/06/06 03:52:55;;;;;;;12.60;11.30;;;15.40;99.90;;;;;;2096077;28;20215;-72
2023/06/06 03:53:56;;;;;;;13.43;10.88;;;15.30;99.90;;;;;;2089600;28;20060;-72
2023/06/06 03:54:57;;;;;;;12.07;10.85;;;15.30;99.90;;;;;;2097419;28;20543;-71
2023/06/06 03:55:59;;;;;;;12.60;10.95;;;15.30;99.90;;;;;;2079783;28;20152;-71
2023/06/06 03:56:59;;;;;;;14.85;11.00;;;15.30;99.90;;;;;;2092368;28;20487;-72
2023/06/06 03:58:03;;;;;;;15.38;11.23;;;15.30;99.90;;;;;;2093985;28;20090;-72
2023/06/06 03:59:05;;;;;;;15.70;11.77;;;15.30;99.90;;;;;;2092620;28;20028;-71
2023/06/06 04:00:11;;;;;;;12.82;10.98;;;15.30;99.90;;;;;;2089285;28;20655;-71
2023/06/06 04:01:14;;;;;;;13.10;11.10;;;15.40;99.90;;;;;;2097705;28;20036;-71
2023/06/06 04:02:16;;;;;;;13.27;11.88;;;15.40;99.90;;;;;;2097378;28;20040;-72
2023/06/06 04:03:17;;;;;;;13.55;11.63;;;15.30;99.90;;;;;;2089567;28;20314;-72
2023/06/06 04:04:19;;;;;;;12.88;11.38;;;15.30;99.90;;;;;;2097413;28;20122;-72
2023/06/06 04:05:20;;;;;;;12.80;11.30;;;15.30;99.90;;;;;;2092159;28;20035;-73
2023/06/06 04:06:20;;;;;;;12.15;10.82;;;15.40;99.90;;;;;;2085615;28;20060;-71
2023/06/06 04:07:21;;;;;;;14.27;11.80;;;15.30;99.90;;;;;;2078763;28;20135;-72
2023/06/06 04:08:21;;;;;;;12.40;10.68;;;15.40;99.90;;;;;;2094953;28;20066;-71
2023/06/06 04:09:22;;;;;;;13.57;11.00;;;15.40;99.90;;;;;;2098555;28;20582;-73
2023/06/06 04:10:23;;;;;;;12.95;10.40;;;15.40;99.90;;;;;;2092610;28;20113;-72
2023/06/06 04:11:23;;;;;;;13.90;11.05;;;15.30;99.90;;;;;;2096796;28;20028;-72
2023/06/06 04:12:26;;;;;;;13.93;11.00;;;15.40;99.90;;;;;;2093957;28;20102;-71
2023/06/06 04:13:26;;;;;;;12.55;11.23;;;15.30;99.90;;;;;;2101214;28;20056;-72
2023/06/06 04:14:27;;;;;;;12.50;11.00;;;15.30;99.90;;;;;;2096407;28;20035;-71
2023/06/06 04:15:27;;;;;;;14.60;12.05;;;15.30;99.90;;;;;;2100938;28;20045;-71
2023/06/06 04:16:28;;;;;;;14.50;11.48;;;15.30;99.90;;;;;;2100227;28;20119;-71
2023/06/06 04:17:29;;;;;;;15.82;11.93;;;15.30;99.90;;;;;;2098813;28;20106;-72
2023/06/06 04:18:29;;;;;;;13.93;11.38;;;15.30;99.90;;;;;;2093318;28;20421;-72
2023/06/06 04:19:31;;;;;;;15.32;11.75;;;15.30;99.90;;;;;;2086382;28;20040;-72
2023/06/06 04:20:32;;;;;;;12.50;10.85;;;15.30;99.90;;;;;;2096118;28;20072;-72
2023/06/06 04:21:33;;;;;;;12.32;10.60;;;15.30;99.90;;;;;;2102820;28;20050;-71
2023/06/06 04:22:34;;;;;;;12.20;10.88;;;15.20;99.90;;;;;;2100525;28;20483;-72
2023/06/06 04:23:35;;;;;;;12.82;10.90;;;15.20;99.90;;;;;;2092066;28;20040;-72
2023/06/06 04:24:36;;;;;;;12.32;10.98;;;15.20;99.90;;;;;;2091605;28;20127;-72
2023/06/06 04:25:37;;;;;;;14.13;11.75;;;15.30;99.90;;;;;;2083504;28;20040;-72
2023/06/06 04:26:37;;;;;;;12.40;11.10;;;15.20;99.90;;;;;;2079109;28;20029;-72
2023/06/06 04:27:40;;;;;;;12.60;11.18;;;15.30;99.90;;;;;;2100454;28;20267;-71
2023/06/06 04:28:48;;;;;;;15.95;11.60;;;15.20;99.90;;;;;;2090888;28;20024;-73
2023/06/06 04:29:50;;;;;;;14.48;11.55;;;15.20;99.90;;;;;;2093291;28;20121;-72
2023/06/06 04:30:52;;;;;;;24.42;20.83;;;15.20;99.90;;;;;;2082798;28;20025;-73
2023/06/06 04:31:53;;;;;;;13.90;12.27;;;15.20;99.90;;;;;;2085433;28;20039;-72
2023/06/06 04:32:54;;;;;;;14.55;11.75;;;15.20;99.90;;;;;;2092545;28;20020;-75
2023/06/06 04:33:56;;;;;;;12.18;10.90;;;15.30;99.90;;;;;;2082572;28;20500;-72
2023/06/06 04:34:57;;;;;;;15.88;11.65;;;15.20;99.90;;;;;;2088618;28;20035;-72
2023/06/06 04:36:00;;;;;;;13.05;10.93;;;15.20;99.90;;;;;;2087885;28;20083;-70
2023/06/06 04:37:04;;;;;;;14.05;11.55;;;15.20;99.90;;;;;;2091542;28;20030;-70
2023/06/06 04:38:07;;;;;;;13.27;11.38;;;15.20;99.90;;;;;;2088917;28;20036;-71
2023/06/06 04:39:08;;;;;;;13.80;12.35;;;15.20;99.90;;;;;;2086781;28;20030;-72
2023/06/06 04:40:10;;;;;;;13.85;11.77;;;15.20;99.90;;;;;;2086539;28;20025;-72
2023/06/06 04:41:12;;;;;;;15.68;12.57;;;15.20;99.90;;;;;;2099096;28;20511;-70
2023/06/06 04:42:15;;;;;;;13.80;11.75;;;15.20;99.90;;;;;;2096277;28;20039;-71
2023/06/06 04:43:19;;;;;;;14.10;11.55;;;15.20;99.90;;;;;;2097444;28;20030;-72
2023/06/06 04:44:20;;;;;;;14.65;12.00;;;15.20;99.90;;;;;;2097238;28;20105;-72
2023/06/06 04:45:23;;;;;;;13.10;11.68;;;15.20;99.90;;;;;;2096904;28;20040;-71
2023/06/06 04:46:24;;;;;;;16.05;12.35;;;15.30;99.90;;;;;;2097626;28;20024;-72
2023/06/06 04:47:28;;;;;;;14.85;12.02;;;15.20;99.90;;;;;;2092605;28;20039;-72
2023/06/06 04:48:28;;;;;;;13.15;11.40;;;15.20;99.90;;;;;;2091849;28;20024;-72
2023/06/06 04:49:35;;;;;;;14.95;12.25;;;15.20;99.90;;;;;;2092202;28;20101;-70
2023/06/06 04:50:36;;;;;;;14.23;12.20;;;15.20;99.90;;;;;;2091586;28;20068;-71
2023/06/06 04:51:40;;;;;;;13.45;12.05;;;15.20;99.90;;;;;;2091260;28;20028;-71
2023/06/06 04:52:40;;;;;;;14.70;11.70;;;15.20;99.90;;;;;;2099722;28;20035;-71
2023/06/06 04:53:42;;;;;;;14.88;12.52;;;15.20;99.90;;;;;;2101881;28;20175;-73
2023/06/06 04:54:45;;;;;;;14.55;12.10;;;15.20;99.90;;;;;;2094259;28;20495;-71
2023/06/06 04:55:47;;;;;;;16.40;12.25;;;15.20;99.90;;;;;;2094212;28;20069;-71
2023/06/06 04:56:48;;;;;;;14.73;12.38;;;15.20;99.90;;;;;;2097125;28;20083;-72
2023/06/06 04:57:49;;;;;;;14.13;11.40;;;15.20;99.90;;;;;;2090602;28;20078;-71
2023/06/06 04:58:52;;;;;;;16.05;13.00;;;15.20;99.90;;;;;;2088209;28;20442;-72
2023/06/06 04:59:53;;;;;;;15.88;12.00;;;15.20;99.90;;;;;;2099711;28;20028;-72
2023/06/06 05:00:57;;;;;;;15.73;12.20;;;15.20;99.90;;;;;;2098855;28;20028;-75
2023/06/06 05:01:58;;;;;;;15.35;12.70;;;15.20;99.90;;;;;;2099601;28;20036;-75
2023/06/06 05:02:59;;;;;;;13.13;11.73;;;15.20;99.90;;;;;;2097403;28;20036;-72
2023/06/06 05:04:00;;;;;;;13.13;11.80;;;15.20;99.90;;;;;;2092825;28;20037;-79
2023/06/06 05:05:02;;;;;;;14.43;11.80;;;15.20;99.90;;;;;;2092832;28;20338;-74
2023/06/06 05:06:02;;;;;;;15.13;11.93;;;15.20;99.90;;;;;;2093648;28;20073;-75
2023/06/06 05:07:03;;;;;;;16.55;11.73;;;15.20;99.90;;;;;;2096596;28;20103;-74
2023/06/06 05:08:04;;;;;;;14.75;12.35;;;15.20;99.90;;;;;;2098808;28;20351;-73
2023/06/06 05:09:06;;;;;;;14.02;11.70;;;15.20;99.90;;;;;;2097024;28;20059;-79
2023/06/06 05:10:07;;;;;;;14.40;12.18;;;15.20;99.90;;;;;;2109760;27;20407;-79
2023/06/06 05:11:08;;;;;;;13.13;11.73;;;15.20;99.90;;;;;;2102504;27;20363;-78
2023/06/06 05:12:08;;;;;;;13.00;11.60;;;15.20;99.90;;;;;;2082650;28;20057;-79
2023/06/06 05:13:09;;;;;;;13.63;11.82;;;15.20;99.90;;;;;;2083640;28;20500;-79
2023/06/06 05:14:09;;;;;;;13.68;11.50;;;15.20;99.90;;;;;;2093021;28;20123;-79
2023/06/06 05:15:10;;;;;;;14.40;12.00;;;15.20;99.90;;;;;;2099732;28;20034;-77
2023/06/06 05:16:11;;;;;;;14.27;12.75;;;15.20;99.90;;;;;;2096683;28;20047;-78
2023/06/06 05:17:15;;;;;;;13.63;12.07;;;15.30;99.90;;;;;;2090772;28;20029;-79
2023/06/06 05:18:16;;;;;;;13.40;11.68;;;15.30;99.90;;;;;;2099623;28;20387;-80